sensor_id;sensor_type;location;lat;lon;timestamp;P1;durP1;ratioP1;P2;durP2;ratioP2
22632;SDS011;11483;55.828;37.488;2022-10-16T00:00:34;10.98;;;3.17;;
22632;SDS011;11483;55.828;37.488;2022-10-16T00:03:01;10.32;;;3.13;;
22632;SDS011;11483;55.828;37.488;2022-10-16T00:05:28;9.30;;;3.90;;
22632;SDS011;11483;55.828;37.488;2022-10-16T00:07:54;9.00;;;3.70;;
22632;SDS011;11483;55.828;37.488;2022-10-16T00:10:20;11.93;;;4.20;;
22632;SDS011;11483;55.828;37.488;2022-10-16T00:12:46;8.00;;;3.70;;
22632;SDS011;11483;55.828;37.488;2022-10-16T00:15:12;11.65;;;3.45;;
22632;SDS011;11483;55.828;37.488;2022-10-16T00:17:38;8.68;;;3.60;;
22632;SDS011;11483;55.828;37.488;2022-10-16T00:20:04;7.72;;;4.15;;
22632;SDS011;11483;55.828;37.488;2022-10-16T00:22:49;12.52;;;3.88;;
22632;SDS011;11483;55.828;37.488;2022-10-16T00:25:15;8.07;;;3.67;;
22632;SDS011;11483;55.828;37.488;2022-10-16T00:27:41;6.70;;;3.97;;
22632;SDS011;11483;55.828;37.488;2022-10-16T00:30:06;6.35;;;3.53;;
22632;SDS011;11483;55.828;37.488;2022-10-16T00:32:33;6.47;;;3.72;;
22632;SDS011;11483;55.828;37.488;2022-10-16T00:34:59;7.65;;;3.90;;
22632;SDS011;11483;55.828;37.488;2022-10-16T00:37:25;7.90;;;3.78;;
22632;SDS011;11483;55.828;37.488;2022-10-16T00:39:50;15.25;;;4.25;;
22632;SDS011;11483;55.828;37.488;2022-10-16T00:42:16;7.95;;;3.92;;
22632;SDS011;11483;55.828;37.488;2022-10-16T00:44:54;7.22;;;3.60;;
22632;SDS011;11483;55.828;37.488;2022-10-16T00:47:35;6.70;;;3.50;;
22632;SDS011;11483;55.828;37.488;2022-10-16T00:52:36;8.05;;;3.50;;
22632;SDS011;11483;55.828;37.488;2022-10-16T00:55:08;10.70;;;3.67;;
22632;SDS011;11483;55.828;37.488;2022-10-16T00:57:35;9.57;;;3.72;;
22632;SDS011;11483;55.828;37.488;2022-10-16T01:00:02;10.68;;;3.25;;
22632;SDS011;11483;55.828;37.488;2022-10-16T01:02:30;9.13;;;3.60;;
22632;SDS011;11483;55.828;37.488;2022-10-16T01:04:56;16.60;;;4.00;;
22632;SDS011;11483;55.828;37.488;2022-10-16T01:07:27;9.95;;;3.92;;
22632;SDS011;11483;55.828;37.488;2022-10-16T01:10:30;10.35;;;3.25;;
22632;SDS011;11483;55.828;37.488;2022-10-16T01:13:15;8.55;;;3.80;;
22632;SDS011;11483;55.828;37.488;2022-10-16T01:15:57;17.25;;;3.70;;
22632;SDS011;11483;55.828;37.488;2022-10-16T01:18:52;11.85;;;3.70;;
22632;SDS011;11483;55.828;37.488;2022-10-16T01:21:22;10.15;;;3.60;;
22632;SDS011;11483;55.828;37.488;2022-10-16T01:29:25;7.00;;;3.40;;
22632;SDS011;11483;55.828;37.488;2022-10-16T01:32:02;11.50;;;3.92;;
22632;SDS011;11483;55.828;37.488;2022-10-16T01:34:37;6.65;;;3.67;;
22632;SDS011;11483;55.828;37.488;2022-10-16T01:37:09;9.02;;;3.75;;
22632;SDS011;11483;55.828;37.488;2022-10-16T01:39:48;13.63;;;3.85;;
22632;SDS011;11483;55.828;37.488;2022-10-16T01:42:21;14.48;;;3.55;;
22632;SDS011;11483;55.828;37.488;2022-10-16T01:44:53;7.60;;;3.47;;
22632;SDS011;11483;55.828;37.488;2022-10-16T01:47:24;14.77;;;3.60;;
22632;SDS011;11483;55.828;37.488;2022-10-16T01:49:51;10.77;;;3.70;;
22632;SDS011;11483;55.828;37.488;2022-10-16T01:52:22;6.32;;;3.20;;
22632;SDS011;11483;55.828;37.488;2022-10-16T01:54:52;10.70;;;4.45;;
22632;SDS011;11483;55.828;37.488;2022-10-16T01:57:20;16.45;;;3.53;;
22632;SDS011;11483;55.828;37.488;2022-10-16T01:59:50;7.18;;;3.50;;
22632;SDS011;11483;55.828;37.488;2022-10-16T02:02:19;8.45;;;3.55;;
22632;SDS011;11483;55.828;37.488;2022-10-16T02:04:58;7.47;;;3.40;;
22632;SDS011;11483;55.828;37.488;2022-10-16T02:07:37;13.93;;;3.47;;
22632;SDS011;11483;55.828;37.488;2022-10-16T02:10:02;9.13;;;3.40;;
22632;SDS011;11483;55.828;37.488;2022-10-16T02:12:32;10.98;;;4.05;;
22632;SDS011;11483;55.828;37.488;2022-10-16T02:15:01;7.10;;;3.75;;
22632;SDS011;11483;55.828;37.488;2022-10-16T02:17:27;9.27;;;3.40;;
22632;SDS011;11483;55.828;37.488;2022-10-16T02:19:54;7.20;;;3.30;;
22632;SDS011;11483;55.828;37.488;2022-10-16T02:22:23;9.85;;;3.88;;
22632;SDS011;11483;55.828;37.488;2022-10-16T02:27:46;6.78;;;3.55;;
22632;SDS011;11483;55.828;37.488;2022-10-16T02:30:24;7.50;;;3.33;;
22632;SDS011;11483;55.828;37.488;2022-10-16T02:33:02;8.90;;;3.42;;
22632;SDS011;11483;55.828;37.488;2022-10-16T02:35:32;6.83;;;3.50;;
22632;SDS011;11483;55.828;37.488;2022-10-16T02:37:58;7.57;;;3.30;;
22632;SDS011;11483;55.828;37.488;2022-10-16T02:40:24;14.97;;;5.73;;
22632;SDS011;11483;55.828;37.488;2022-10-16T02:42:52;14.73;;;3.73;;
22632;SDS011;11483;55.828;37.488;2022-10-16T02:45:19;8.33;;;3.73;;
22632;SDS011;11483;55.828;37.488;2022-10-16T02:47:45;9.55;;;3.92;;
22632;SDS011;11483;55.828;37.488;2022-10-16T02:50:11;7.72;;;3.70;;
22632;SDS011;11483;55.828;37.488;2022-10-16T02:52:37;11.17;;;4.20;;
22632;SDS011;11483;55.828;37.488;2022-10-16T02:55:03;9.85;;;3.80;;
22632;SDS011;11483;55.828;37.488;2022-10-16T02:57:30;7.00;;;3.30;;
22632;SDS011;11483;55.828;37.488;2022-10-16T02:59:56;10.05;;;3.72;;
22632;SDS011;11483;55.828;37.488;2022-10-16T03:02:23;8.97;;;3.90;;
22632;SDS011;11483;55.828;37.488;2022-10-16T03:04:49;13.45;;;4.43;;
22632;SDS011;11483;55.828;37.488;2022-10-16T03:07:14;11.00;;;3.55;;
22632;SDS011;11483;55.828;37.488;2022-10-16T03:09:40;7.43;;;3.20;;
22632;SDS011;11483;55.828;37.488;2022-10-16T03:12:06;8.93;;;3.53;;
22632;SDS011;11483;55.828;37.488;2022-10-16T03:14:32;11.17;;;3.37;;
22632;SDS011;11483;55.828;37.488;2022-10-16T03:16:58;7.70;;;3.73;;
22632;SDS011;11483;55.828;37.488;2022-10-16T03:19:24;5.53;;;3.30;;
22632;SDS011;11483;55.828;37.488;2022-10-16T03:21:50;10.00;;;3.80;;
22632;SDS011;11483;55.828;37.488;2022-10-16T03:24:16;9.10;;;3.87;;
22632;SDS011;11483;55.828;37.488;2022-10-16T03:26:41;6.47;;;3.27;;
22632;SDS011;11483;55.828;37.488;2022-10-16T03:29:07;8.03;;;3.50;;
22632;SDS011;11483;55.828;37.488;2022-10-16T03:31:33;11.70;;;3.80;;
22632;SDS011;11483;55.828;37.488;2022-10-16T03:33:59;11.90;;;3.83;;
22632;SDS011;11483;55.828;37.488;2022-10-16T03:36:25;7.57;;;3.30;;
22632;SDS011;11483;55.828;37.488;2022-10-16T03:38:51;9.47;;;3.70;;
22632;SDS011;11483;55.828;37.488;2022-10-16T03:41:16;8.30;;;4.03;;
22632;SDS011;11483;55.828;37.488;2022-10-16T03:43:42;8.23;;;3.83;;
22632;SDS011;11483;55.828;37.488;2022-10-16T03:46:08;7.43;;;4.00;;
22632;SDS011;11483;55.828;37.488;2022-10-16T03:48:34;10.77;;;3.53;;
22632;SDS011;11483;55.828;37.488;2022-10-16T03:51:00;10.07;;;3.60;;
22632;SDS011;11483;55.828;37.488;2022-10-16T03:53:25;9.07;;;3.50;;
22632;SDS011;11483;55.828;37.488;2022-10-16T03:55:51;8.43;;;3.43;;
22632;SDS011;11483;55.828;37.488;2022-10-16T03:58:17;12.47;;;3.93;;
22632;SDS011;11483;55.828;37.488;2022-10-16T04:00:45;11.50;;;3.77;;
22632;SDS011;11483;55.828;37.488;2022-10-16T04:03:12;5.83;;;3.30;;
22632;SDS011;11483;55.828;37.488;2022-10-16T04:05:38;6.87;;;3.17;;
22632;SDS011;11483;55.828;37.488;2022-10-16T04:08:04;8.77;;;3.70;;
22632;SDS011;11483;55.828;37.488;2022-10-16T04:10:30;16.00;;;4.27;;
22632;SDS011;11483;55.828;37.488;2022-10-16T04:12:56;7.67;;;3.57;;
22632;SDS011;11483;55.828;37.488;2022-10-16T04:15:23;7.13;;;3.87;;
22632;SDS011;11483;55.828;37.488;2022-10-16T04:17:49;10.57;;;3.83;;
22632;SDS011;11483;55.828;37.488;2022-10-16T04:20:16;14.83;;;4.63;;
22632;SDS011;11483;55.828;37.488;2022-10-16T04:22:42;7.17;;;4.27;;
22632;SDS011;11483;55.828;37.488;2022-10-16T04:25:08;9.00;;;3.77;;
22632;SDS011;11483;55.828;37.488;2022-10-16T04:27:34;8.97;;;4.17;;
22632;SDS011;11483;55.828;37.488;2022-10-16T04:30:00;10.73;;;3.87;;
22632;SDS011;11483;55.828;37.488;2022-10-16T04:32:26;8.40;;;3.70;;
22632;SDS011;11483;55.828;37.488;2022-10-16T04:34:52;8.70;;;3.70;;
22632;SDS011;11483;55.828;37.488;2022-10-16T04:37:19;15.20;;;4.00;;
22632;SDS011;11483;55.828;37.488;2022-10-16T04:39:49;11.43;;;3.50;;
22632;SDS011;11483;55.828;37.488;2022-10-16T04:42:15;10.77;;;4.10;;
22632;SDS011;11483;55.828;37.488;2022-10-16T04:44:40;9.23;;;4.07;;
22632;SDS011;11483;55.828;37.488;2022-10-16T04:47:06;11.57;;;4.00;;
22632;SDS011;11483;55.828;37.488;2022-10-16T04:49:33;9.63;;;4.07;;
22632;SDS011;11483;55.828;37.488;2022-10-16T04:51:59;12.93;;;4.23;;
22632;SDS011;11483;55.828;37.488;2022-10-16T04:54:24;10.33;;;3.87;;
22632;SDS011;11483;55.828;37.488;2022-10-16T04:56:50;12.50;;;3.73;;
22632;SDS011;11483;55.828;37.488;2022-10-16T04:59:17;7.17;;;3.37;;
22632;SDS011;11483;55.828;37.488;2022-10-16T05:01:44;12.38;;;3.83;;
22632;SDS011;11483;55.828;37.488;2022-10-16T05:04:10;11.85;;;4.35;;
22632;SDS011;11483;55.828;37.488;2022-10-16T05:06:36;12.35;;;4.30;;
22632;SDS011;11483;55.828;37.488;2022-10-16T05:09:04;14.35;;;4.40;;
22632;SDS011;11483;55.828;37.488;2022-10-16T05:11:30;13.02;;;3.90;;
22632;SDS011;11483;55.828;37.488;2022-10-16T05:13:56;7.37;;;3.70;;
22632;SDS011;11483;55.828;37.488;2022-10-16T05:16:22;8.88;;;4.00;;
22632;SDS011;11483;55.828;37.488;2022-10-16T05:18:48;15.18;;;4.05;;
22632;SDS011;11483;55.828;37.488;2022-10-16T05:21:14;7.63;;;4.07;;
22632;SDS011;11483;55.828;37.488;2022-10-16T05:23:40;9.38;;;3.67;;
22632;SDS011;11483;55.828;37.488;2022-10-16T05:26:06;14.45;;;3.90;;
22632;SDS011;11483;55.828;37.488;2022-10-16T05:28:31;17.23;;;4.10;;
22632;SDS011;11483;55.828;37.488;2022-10-16T05:30:57;10.18;;;3.90;;
22632;SDS011;11483;55.828;37.488;2022-10-16T05:33:25;9.80;;;4.15;;
22632;SDS011;11483;55.828;37.488;2022-10-16T05:35:51;8.60;;;4.18;;
22632;SDS011;11483;55.828;37.488;2022-10-16T05:38:17;10.38;;;4.32;;
22632;SDS011;11483;55.828;37.488;2022-10-16T05:40:44;8.90;;;3.88;;
22632;SDS011;11483;55.828;37.488;2022-10-16T05:43:16;10.02;;;4.00;;
22632;SDS011;11483;55.828;37.488;2022-10-16T05:45:41;7.80;;;4.28;;
22632;SDS011;11483;55.828;37.488;2022-10-16T05:48:07;10.93;;;4.32;;
22632;SDS011;11483;55.828;37.488;2022-10-16T05:50:33;9.50;;;4.53;;
22632;SDS011;11483;55.828;37.488;2022-10-16T05:52:59;9.27;;;4.30;;
22632;SDS011;11483;55.828;37.488;2022-10-16T05:55:25;13.60;;;4.40;;
22632;SDS011;11483;55.828;37.488;2022-10-16T05:57:53;8.45;;;4.07;;
22632;SDS011;11483;55.828;37.488;2022-10-16T06:00:20;9.45;;;4.20;;
22632;SDS011;11483;55.828;37.488;2022-10-16T06:02:45;14.75;;;4.65;;
22632;SDS011;11483;55.828;37.488;2022-10-16T06:05:11;8.88;;;4.53;;
22632;SDS011;11483;55.828;37.488;2022-10-16T06:07:37;7.25;;;4.05;;
22632;SDS011;11483;55.828;37.488;2022-10-16T06:10:03;7.97;;;4.18;;
22632;SDS011;11483;55.828;37.488;2022-10-16T06:12:30;17.33;;;4.45;;
22632;SDS011;11483;55.828;37.488;2022-10-16T06:14:55;13.38;;;4.45;;
22632;SDS011;11483;55.828;37.488;2022-10-16T06:17:22;16.60;;;4.45;;
22632;SDS011;11483;55.828;37.488;2022-10-16T06:19:48;10.90;;;4.40;;
22632;SDS011;11483;55.828;37.488;2022-10-16T06:22:14;10.60;;;4.60;;
22632;SDS011;11483;55.828;37.488;2022-10-16T06:24:40;9.57;;;4.35;;
22632;SDS011;11483;55.828;37.488;2022-10-16T06:27:05;11.85;;;4.57;;
22632;SDS011;11483;55.828;37.488;2022-10-16T06:29:31;15.30;;;4.78;;
22632;SDS011;11483;55.828;37.488;2022-10-16T06:31:57;12.52;;;4.30;;
22632;SDS011;11483;55.828;37.488;2022-10-16T06:34:23;17.38;;;4.32;;
22632;SDS011;11483;55.828;37.488;2022-10-16T06:36:48;9.93;;;4.78;;
22632;SDS011;11483;55.828;37.488;2022-10-16T06:39:14;13.00;;;4.45;;
22632;SDS011;11483;55.828;37.488;2022-10-16T06:41:40;15.73;;;4.38;;
22632;SDS011;11483;55.828;37.488;2022-10-16T06:44:06;13.52;;;4.82;;
22632;SDS011;11483;55.828;37.488;2022-10-16T06:46:35;17.70;;;4.13;;
22632;SDS011;11483;55.828;37.488;2022-10-16T06:49:01;11.40;;;5.05;;
22632;SDS011;11483;55.828;37.488;2022-10-16T06:51:27;10.88;;;4.60;;
22632;SDS011;11483;55.828;37.488;2022-10-16T06:53:54;14.70;;;4.93;;
22632;SDS011;11483;55.828;37.488;2022-10-16T06:56:24;16.25;;;4.97;;
22632;SDS011;11483;55.828;37.488;2022-10-16T06:58:52;17.55;;;4.97;;
22632;SDS011;11483;55.828;37.488;2022-10-16T07:01:19;24.80;;;5.00;;
22632;SDS011;11483;55.828;37.488;2022-10-16T07:03:47;14.35;;;4.72;;
22632;SDS011;11483;55.828;37.488;2022-10-16T07:06:15;16.08;;;4.82;;
22632;SDS011;11483;55.828;37.488;2022-10-16T07:08:43;12.73;;;4.57;;
22632;SDS011;11483;55.828;37.488;2022-10-16T07:11:13;8.73;;;4.97;;
22632;SDS011;11483;55.828;37.488;2022-10-16T07:13:41;10.32;;;4.78;;
22632;SDS011;11483;55.828;37.488;2022-10-16T07:16:08;9.18;;;5.10;;
22632;SDS011;11483;55.828;37.488;2022-10-16T07:18:35;11.57;;;5.22;;
22632;SDS011;11483;55.828;37.488;2022-10-16T07:21:05;13.30;;;5.15;;
22632;SDS011;11483;55.828;37.488;2022-10-16T07:23:32;8.48;;;4.60;;
22632;SDS011;11483;55.828;37.488;2022-10-16T07:25:58;25.90;;;5.78;;
22632;SDS011;11483;55.828;37.488;2022-10-16T07:28:24;14.23;;;5.00;;
22632;SDS011;11483;55.828;37.488;2022-10-16T07:30:50;11.77;;;5.05;;
22632;SDS011;11483;55.828;37.488;2022-10-16T07:33:15;11.98;;;4.70;;
22632;SDS011;11483;55.828;37.488;2022-10-16T07:35:48;9.75;;;4.93;;
22632;SDS011;11483;55.828;37.488;2022-10-16T07:38:18;7.75;;;4.68;;
22632;SDS011;11483;55.828;37.488;2022-10-16T07:40:45;20.70;;;5.45;;
22632;SDS011;11483;55.828;37.488;2022-10-16T07:43:11;13.40;;;5.53;;
22632;SDS011;11483;55.828;37.488;2022-10-16T07:45:37;15.95;;;4.75;;
22632;SDS011;11483;55.828;37.488;2022-10-16T07:48:11;11.50;;;4.88;;
22632;SDS011;11483;55.828;37.488;2022-10-16T07:50:37;13.15;;;5.30;;
22632;SDS011;11483;55.828;37.488;2022-10-16T07:53:03;11.38;;;5.18;;
22632;SDS011;11483;55.828;37.488;2022-10-16T07:55:29;14.13;;;4.80;;
22632;SDS011;11483;55.828;37.488;2022-10-16T07:57:55;8.52;;;4.85;;
22632;SDS011;11483;55.828;37.488;2022-10-16T08:00:21;11.05;;;5.05;;
22632;SDS011;11483;55.828;37.488;2022-10-16T08:02:47;12.23;;;4.68;;
22632;SDS011;11483;55.828;37.488;2022-10-16T08:05:12;8.27;;;4.40;;
22632;SDS011;11483;55.828;37.488;2022-10-16T08:07:38;11.60;;;4.50;;
22632;SDS011;11483;55.828;37.488;2022-10-16T08:10:04;15.15;;;5.22;;
22632;SDS011;11483;55.828;37.488;2022-10-16T08:12:50;16.02;;;5.30;;
22632;SDS011;11483;55.828;37.488;2022-10-16T08:15:17;9.68;;;4.90;;
22632;SDS011;11483;55.828;37.488;2022-10-16T08:32:22;16.15;;;5.00;;
22632;SDS011;11483;55.828;37.488;2022-10-16T08:34:48;10.40;;;4.80;;
22632;SDS011;11483;55.828;37.488;2022-10-16T08:37:14;12.43;;;4.85;;
22632;SDS011;11483;55.828;37.488;2022-10-16T08:39:40;13.73;;;4.87;;
22632;SDS011;11483;55.828;37.488;2022-10-16T08:48:32;14.10;;;4.60;;
22632;SDS011;11483;55.828;37.488;2022-10-16T08:51:11;10.68;;;4.30;;
22632;SDS011;11483;55.828;37.488;2022-10-16T08:53:50;12.50;;;4.15;;
22632;SDS011;11483;55.828;37.488;2022-10-16T09:06:42;7.30;;;3.67;;
22632;SDS011;11483;55.828;37.488;2022-10-16T09:47:00;13.63;;;3.38;;
22632;SDS011;11483;55.828;37.488;2022-10-16T09:49:30;8.18;;;3.33;;
22632;SDS011;11483;55.828;37.488;2022-10-16T09:52:05;12.73;;;3.30;;
22632;SDS011;11483;55.828;37.488;2022-10-16T09:54:37;9.40;;;3.47;;
22632;SDS011;11483;55.828;37.488;2022-10-16T09:57:13;10.23;;;4.28;;
22632;SDS011;11483;55.828;37.488;2022-10-16T09:59:49;6.18;;;3.00;;
22632;SDS011;11483;55.828;37.488;2022-10-16T10:02:23;6.25;;;3.03;;
22632;SDS011;11483;55.828;37.488;2022-10-16T10:40:51;12.38;;;3.70;;
22632;SDS011;11483;55.828;37.488;2022-10-16T10:46:41;8.30;;;3.38;;
22632;SDS011;11483;55.828;37.488;2022-10-16T10:57:29;7.40;;;3.53;;
22632;SDS011;11483;55.828;37.488;2022-10-16T11:00:18;8.77;;;3.42;;
22632;SDS011;11483;55.828;37.488;2022-10-16T11:08:00;8.30;;;3.60;;
22632;SDS011;11483;55.828;37.488;2022-10-16T11:10:56;6.40;;;3.60;;
22632;SDS011;11483;55.828;37.488;2022-10-16T11:13:33;7.60;;;3.30;;
22632;SDS011;11483;55.828;37.488;2022-10-16T11:16:28;8.98;;;3.28;;
22632;SDS011;11483;55.828;37.488;2022-10-16T11:22:47;11.20;;;3.78;;
22632;SDS011;11483;55.828;37.488;2022-10-16T11:27:50;6.73;;;3.60;;
22632;SDS011;11483;55.828;37.488;2022-10-16T11:30:47;9.43;;;4.28;;
22632;SDS011;11483;55.828;37.488;2022-10-16T11:33:27;7.50;;;3.67;;
22632;SDS011;11483;55.828;37.488;2022-10-16T11:44:07;11.70;;;3.33;;
22632;SDS011;11483;55.828;37.488;2022-10-16T11:46:52;8.13;;;3.28;;
22632;SDS011;11483;55.828;37.488;2022-10-16T11:49:26;9.35;;;3.30;;
22632;SDS011;11483;55.828;37.488;2022-10-16T11:52:07;6.63;;;3.13;;
22632;SDS011;11483;55.828;37.488;2022-10-16T11:54:49;14.07;;;3.70;;
22632;SDS011;11483;55.828;37.488;2022-10-16T11:57:29;9.25;;;3.92;;
22632;SDS011;11483;55.828;37.488;2022-10-16T12:00:43;8.27;;;3.80;;
22632;SDS011;11483;55.828;37.488;2022-10-16T12:02:55;9.07;;;3.67;;
22632;SDS011;11483;55.828;37.488;2022-10-16T12:05:51;10.85;;;3.58;;
22632;SDS011;11483;55.828;37.488;2022-10-16T12:08:18;10.27;;;4.05;;
22632;SDS011;11483;55.828;37.488;2022-10-16T12:10:45;9.25;;;3.75;;
22632;SDS011;11483;55.828;37.488;2022-10-16T12:18:42;8.95;;;3.38;;
22632;SDS011;11483;55.828;37.488;2022-10-16T12:21:09;7.55;;;3.83;;
22632;SDS011;11483;55.828;37.488;2022-10-16T12:23:50;17.88;;;4.03;;
22632;SDS011;11483;55.828;37.488;2022-10-16T12:28:51;9.25;;;3.30;;
22632;SDS011;11483;55.828;37.488;2022-10-16T12:31:17;9.60;;;3.83;;
22632;SDS011;11483;55.828;37.488;2022-10-16T12:33:56;6.88;;;3.38;;
22632;SDS011;11483;55.828;37.488;2022-10-16T12:36:33;8.20;;;3.38;;
22632;SDS011;11483;55.828;37.488;2022-10-16T12:39:00;8.45;;;3.75;;
22632;SDS011;11483;55.828;37.488;2022-10-16T12:41:36;10.48;;;3.67;;
22632;SDS011;11483;55.828;37.488;2022-10-16T12:44:04;9.05;;;3.30;;
22632;SDS011;11483;55.828;37.488;2022-10-16T12:46:46;7.70;;;3.63;;
22632;SDS011;11483;55.828;37.488;2022-10-16T12:51:38;9.40;;;3.77;;
22632;SDS011;11483;55.828;37.488;2022-10-16T12:54:19;10.43;;;4.17;;
22632;SDS011;11483;55.828;37.488;2022-10-16T13:05:02;9.68;;;3.85;;
22632;SDS011;11483;55.828;37.488;2022-10-16T13:07:55;10.13;;;3.95;;
22632;SDS011;11483;55.828;37.488;2022-10-16T13:10:54;9.30;;;4.50;;
22632;SDS011;11483;55.828;37.488;2022-10-16T13:16:19;8.43;;;3.88;;
22632;SDS011;11483;55.828;37.488;2022-10-16T13:22:05;9.95;;;4.15;;
22632;SDS011;11483;55.828;37.488;2022-10-16T13:33:01;10.52;;;3.85;;
22632;SDS011;11483;55.828;37.488;2022-10-16T13:35:46;10.32;;;3.97;;
22632;SDS011;11483;55.828;37.488;2022-10-16T13:38:16;7.90;;;3.75;;
22632;SDS011;11483;55.828;37.488;2022-10-16T13:40:49;8.43;;;3.33;;
22632;SDS011;11483;55.828;37.488;2022-10-16T13:43:18;10.00;;;4.47;;
22632;SDS011;11483;55.828;37.488;2022-10-16T14:03:05;8.45;;;3.85;;
22632;SDS011;11483;55.828;37.488;2022-10-16T14:05:40;15.50;;;4.20;;
22632;SDS011;11483;55.828;37.488;2022-10-16T14:08:16;12.88;;;3.90;;
22632;SDS011;11483;55.828;37.488;2022-10-16T14:10:42;7.90;;;3.30;;
22632;SDS011;11483;55.828;37.488;2022-10-16T14:13:15;11.10;;;4.25;;
22632;SDS011;11483;55.828;37.488;2022-10-16T14:23:30;11.93;;;4.10;;
22632;SDS011;11483;55.828;37.488;2022-10-16T14:26:14;6.45;;;3.42;;
22632;SDS011;11483;55.828;37.488;2022-10-16T14:28:43;8.53;;;4.13;;
22632;SDS011;11483;55.828;37.488;2022-10-16T14:31:30;9.70;;;3.78;;
22632;SDS011;11483;55.828;37.488;2022-10-16T14:33:57;10.02;;;4.07;;
22632;SDS011;11483;55.828;37.488;2022-10-16T14:36:25;15.32;;;4.68;;
22632;SDS011;11483;55.828;37.488;2022-10-16T14:39:06;12.98;;;4.10;;
22632;SDS011;11483;55.828;37.488;2022-10-16T14:41:44;12.63;;;4.20;;
22632;SDS011;11483;55.828;37.488;2022-10-16T14:44:12;12.65;;;4.18;;
22632;SDS011;11483;55.828;37.488;2022-10-16T14:46:39;11.20;;;3.58;;
22632;SDS011;11483;55.828;37.488;2022-10-16T14:51:37;8.05;;;3.58;;
22632;SDS011;11483;55.828;37.488;2022-10-16T14:54:07;8.55;;;3.53;;
22632;SDS011;11483;55.828;37.488;2022-10-16T14:56:56;10.38;;;3.35;;
22632;SDS011;11483;55.828;37.488;2022-10-16T14:59:27;6.18;;;3.10;;
22632;SDS011;11483;55.828;37.488;2022-10-16T15:01:57;12.77;;;4.30;;
22632;SDS011;11483;55.828;37.488;2022-10-16T15:04:23;13.95;;;4.20;;
22632;SDS011;11483;55.828;37.488;2022-10-16T15:06:49;10.20;;;4.10;;
22632;SDS011;11483;55.828;37.488;2022-10-16T15:09:15;10.38;;;3.53;;
22632;SDS011;11483;55.828;37.488;2022-10-16T15:11:41;7.43;;;3.95;;
22632;SDS011;11483;55.828;37.488;2022-10-16T15:14:11;12.35;;;4.00;;
22632;SDS011;11483;55.828;37.488;2022-10-16T15:16:38;8.13;;;3.58;;
22632;SDS011;11483;55.828;37.488;2022-10-16T15:19:04;12.20;;;3.63;;
22632;SDS011;11483;55.828;37.488;2022-10-16T15:21:31;11.45;;;4.18;;
22632;SDS011;11483;55.828;37.488;2022-10-16T15:23:58;10.57;;;4.38;;
22632;SDS011;11483;55.828;37.488;2022-10-16T15:26:26;10.32;;;4.13;;
22632;SDS011;11483;55.828;37.488;2022-10-16T15:28:53;14.35;;;3.88;;
22632;SDS011;11483;55.828;37.488;2022-10-16T15:31:19;10.48;;;3.35;;
22632;SDS011;11483;55.828;37.488;2022-10-16T15:33:50;9.77;;;4.53;;
22632;SDS011;11483;55.828;37.488;2022-10-16T15:36:26;7.85;;;3.53;;
22632;SDS011;11483;55.828;37.488;2022-10-16T15:38:58;9.93;;;3.92;;
22632;SDS011;11483;55.828;37.488;2022-10-16T15:41:50;8.43;;;4.07;;
22632;SDS011;11483;55.828;37.488;2022-10-16T15:44:18;9.40;;;4.30;;
22632;SDS011;11483;55.828;37.488;2022-10-16T15:46:45;6.28;;;3.50;;
22632;SDS011;11483;55.828;37.488;2022-10-16T15:49:13;9.25;;;4.22;;
22632;SDS011;11483;55.828;37.488;2022-10-16T15:51:39;9.57;;;3.75;;
22632;SDS011;11483;55.828;37.488;2022-10-16T15:54:06;10.07;;;3.83;;
22632;SDS011;11483;55.828;37.488;2022-10-16T15:56:33;9.63;;;4.40;;
22632;SDS011;11483;55.828;37.488;2022-10-16T15:58:59;9.65;;;4.05;;
22632;SDS011;11483;55.828;37.488;2022-10-16T16:01:27;7.95;;;3.95;;
22632;SDS011;11483;55.828;37.488;2022-10-16T16:03:54;10.38;;;4.15;;
22632;SDS011;11483;55.828;37.488;2022-10-16T16:06:21;7.32;;;3.58;;
22632;SDS011;11483;55.828;37.488;2022-10-16T16:08:49;9.02;;;3.95;;
22632;SDS011;11483;55.828;37.488;2022-10-16T16:11:16;11.80;;;4.15;;
22632;SDS011;11483;55.828;37.488;2022-10-16T16:13:43;7.00;;;3.67;;
22632;SDS011;11483;55.828;37.488;2022-10-16T16:16:09;8.88;;;4.45;;
22632;SDS011;11483;55.828;37.488;2022-10-16T16:18:39;9.32;;;4.90;;
22632;SDS011;11483;55.828;37.488;2022-10-16T16:21:06;9.15;;;4.07;;
22632;SDS011;11483;55.828;37.488;2022-10-16T16:23:33;9.10;;;3.90;;
22632;SDS011;11483;55.828;37.488;2022-10-16T16:26:02;10.63;;;4.15;;
22632;SDS011;11483;55.828;37.488;2022-10-16T16:28:32;14.18;;;5.15;;
22632;SDS011;11483;55.828;37.488;2022-10-16T16:30:58;8.27;;;4.25;;
22632;SDS011;11483;55.828;37.488;2022-10-16T16:33:24;11.20;;;4.30;;
22632;SDS011;11483;55.828;37.488;2022-10-16T16:35:50;14.23;;;4.35;;
22632;SDS011;11483;55.828;37.488;2022-10-16T16:38:20;8.35;;;4.10;;
22632;SDS011;11483;55.828;37.488;2022-10-16T16:40:46;9.57;;;4.13;;
22632;SDS011;11483;55.828;37.488;2022-10-16T16:43:12;16.67;;;4.63;;
22632;SDS011;11483;55.828;37.488;2022-10-16T16:45:38;14.13;;;5.13;;
22632;SDS011;11483;55.828;37.488;2022-10-16T16:48:04;11.30;;;3.65;;
22632;SDS011;11483;55.828;37.488;2022-10-16T16:50:35;9.88;;;4.10;;
22632;SDS011;11483;55.828;37.488;2022-10-16T16:53:02;9.65;;;4.15;;
22632;SDS011;11483;55.828;37.488;2022-10-16T16:55:28;6.55;;;3.90;;
22632;SDS011;11483;55.828;37.488;2022-10-16T16:57:54;13.13;;;4.35;;
22632;SDS011;11483;55.828;37.488;2022-10-16T17:00:22;10.75;;;3.75;;
22632;SDS011;11483;55.828;37.488;2022-10-16T17:02:48;12.80;;;4.22;;
22632;SDS011;11483;55.828;37.488;2022-10-16T17:05:15;8.43;;;4.40;;
22632;SDS011;11483;55.828;37.488;2022-10-16T17:07:41;15.63;;;4.65;;
22632;SDS011;11483;55.828;37.488;2022-10-16T17:10:07;11.48;;;3.95;;
22632;SDS011;11483;55.828;37.488;2022-10-16T17:12:33;10.77;;;4.22;;
22632;SDS011;11483;55.828;37.488;2022-10-16T17:14:59;15.23;;;4.15;;
22632;SDS011;11483;55.828;37.488;2022-10-16T17:17:25;8.00;;;4.07;;
22632;SDS011;11483;55.828;37.488;2022-10-16T17:19:51;10.32;;;4.18;;
22632;SDS011;11483;55.828;37.488;2022-10-16T17:22:18;15.20;;;4.47;;
22632;SDS011;11483;55.828;37.488;2022-10-16T17:24:47;8.35;;;4.00;;
22632;SDS011;11483;55.828;37.488;2022-10-16T17:27:14;7.93;;;4.43;;
22632;SDS011;11483;55.828;37.488;2022-10-16T17:29:41;12.00;;;4.18;;
22632;SDS011;11483;55.828;37.488;2022-10-16T17:32:06;7.93;;;4.25;;
22632;SDS011;11483;55.828;37.488;2022-10-16T17:34:32;10.20;;;3.88;;
22632;SDS011;11483;55.828;37.488;2022-10-16T17:36:59;7.55;;;3.88;;
22632;SDS011;11483;55.828;37.488;2022-10-16T17:39:25;9.65;;;4.13;;
22632;SDS011;11483;55.828;37.488;2022-10-16T17:41:51;14.00;;;3.70;;
22632;SDS011;11483;55.828;37.488;2022-10-16T17:44:17;9.43;;;4.15;;
22632;SDS011;11483;55.828;37.488;2022-10-16T17:46:50;8.00;;;4.03;;
22632;SDS011;11483;55.828;37.488;2022-10-16T17:49:17;11.43;;;4.78;;
22632;SDS011;11483;55.828;37.488;2022-10-16T17:51:44;10.48;;;4.05;;
22632;SDS011;11483;55.828;37.488;2022-10-16T17:54:10;7.75;;;4.00;;
22632;SDS011;11483;55.828;37.488;2022-10-16T17:56:38;16.17;;;5.18;;
22632;SDS011;11483;55.828;37.488;2022-10-16T17:59:05;7.75;;;4.82;;
22632;SDS011;11483;55.828;37.488;2022-10-16T18:01:36;12.55;;;4.30;;
22632;SDS011;11483;55.828;37.488;2022-10-16T18:04:12;21.50;;;4.75;;
22632;SDS011;11483;55.828;37.488;2022-10-16T18:06:40;9.13;;;4.65;;
22632;SDS011;11483;55.828;37.488;2022-10-16T18:09:08;6.80;;;4.10;;